Time;durP1;ratioP1;P1;durP2;ratioP2;P2;SDS_P1;SDS_P2;PMS_P1;PMS_P2;Temp;Humidity;BMP_temperature;BMP_pressure;BME280_temperature;BME280_humidity;BME280_pressure;Samples;Min_cycle;Max_cycle;Signal;HPM_P1;HPM_P2
2021/05/07 00:00:40;;;;;;;2.92;1.50;;;17.00;53.20;;;;;;5092278;28;20067;-70
2021/05/07 00:03:06;;;;;;;3.00;1.20;;;17.00;53.20;;;;;;5092498;28;20103;-70
2021/05/07 00:05:31;;;;;;;2.28;1.30;;;17.00;53.10;;;;;;5092856;28;20413;-70
2021/05/07 00:07:58;;;;;;;2.92;1.30;;;17.00;53.20;;;;;;5092156;28;20060;-69
2021/05/07 00:10:25;;;;;;;2.65;1.27;;;16.90;53.20;;;;;;5092672;28;20123;-69
2021/05/07 00:12:51;;;;;;;2.55;1.30;;;16.90;53.10;;;;;;5091597;28;20425;-69
2021/05/07 00:15:17;;;;;;;2.42;1.40;;;16.90;53.20;;;;;;5092565;28;20127;-69
2021/05/07 00:17:43;;;;;;;2.28;1.35;;;16.90;53.10;;;;;;5091606;28;20111;-69
2021/05/07 00:20:10;;;;;;;2.17;1.10;;;16.90;53.10;;;;;;5092273;28;20040;-70
2021/05/07 00:22:37;;;;;;;2.83;1.30;;;16.80;53.10;;;;;;5092429;28;20089;-71
2021/05/07 00:25:03;;;;;;;2.55;1.50;;;16.80;53.20;;;;;;5091989;28;20027;-70
2021/05/07 00:27:29;;;;;;;2.85;1.40;;;16.80;53.20;;;;;;5091912;28;20019;-70
2021/05/07 00:29:55;;;;;;;3.05;1.20;;;16.80;53.10;;;;;;5091705;28;20085;-69
2021/05/07 00:32:20;;;;;;;2.72;1.48;;;16.80;53.10;;;;;;5092212;28;20491;-69
2021/05/07 00:34:46;;;;;;;3.15;1.52;;;16.80;53.10;;;;;;5090392;28;20040;-69
2021/05/07 00:37:12;;;;;;;2.10;1.02;;;16.70;53.10;;;;;;5092447;28;20027;-70
2021/05/07 00:39:37;;;;;;;3.47;1.20;;;16.70;53.00;;;;;;5091654;28;20028;-69
2021/05/07 00:42:04;;;;;;;1.67;0.98;;;16.70;53.00;;;;;;5091517;28;20024;-69
2021/05/07 00:44:30;;;;;;;2.33;1.13;;;16.70;53.00;;;;;;5091964;28;20491;-69
2021/05/07 00:46:57;;;;;;;4.03;1.42;;;16.70;53.00;;;;;;5091294;28;20480;-69
2021/05/07 00:49:23;;;;;;;2.17;1.20;;;16.70;53.00;;;;;;5091151;28;20113;-69
2021/05/07 00:51:49;;;;;;;3.33;1.20;;;16.60;53.00;;;;;;5091385;28;20024;-71
2021/05/07 00:54:15;;;;;;;2.97;1.10;;;16.60;52.90;;;;;;5090229;28;20032;-69
2021/05/07 00:56:41;;;;;;;2.17;1.13;;;16.60;53.00;;;;;;5089133;28;20048;-70
2021/05/07 00:59:07;;;;;;;2.92;1.52;;;16.60;53.00;;;;;;5091453;28;20095;-70
2021/05/07 01:01:33;;;;;;;3.55;1.40;;;16.60;52.90;;;;;;5090908;28;20089;-70
2021/05/07 01:03:59;;;;;;;2.75;1.27;;;16.50;52.90;;;;;;5090950;28;20047;-70
2021/05/07 01:06:25;;;;;;;1.80;1.13;;;16.50;53.00;;;;;;5090422;28;20047;-70
2021/05/07 01:08:51;;;;;;;1.85;0.95;;;16.50;52.90;;;;;;5090977;28;20036;-70
2021/05/07 01:11:17;;;;;;;2.55;1.15;;;16.50;52.90;;;;;;5091262;28;20035;-70
2021/05/07 01:13:42;;;;;;;3.05;1.23;;;16.50;52.90;;;;;;5091390;28;20024;-71
2021/05/07 01:16:09;;;;;;;1.98;1.00;;;16.40;52.80;;;;;;5090504;28;20034;-69
2021/05/07 01:18:35;;;;;;;2.45;1.20;;;16.40;52.80;;;;;;5091303;28;20036;-70
2021/05/07 01:21:01;;;;;;;2.30;1.30;;;16.40;52.80;;;;;;5090671;28;20020;-70
2021/05/07 01:23:27;;;;;;;2.28;1.48;;;16.40;52.90;;;;;;5091141;28;20020;-69
2021/05/07 01:25:53;;;;;;;2.45;1.35;;;16.40;52.90;;;;;;5090199;28;20036;-70
2021/05/07 01:28:19;;;;;;;2.72;1.25;;;16.40;52.80;;;;;;5091287;28;20076;-70
2021/05/07 01:30:48;;;;;;;2.35;1.20;;;16.40;52.80;;;;;;5090596;28;20532;-70
2021/05/07 01:33:16;;;;;;;2.28;1.30;;;16.40;52.80;;;;;;5091472;28;20045;-70
2021/05/07 01:35:43;;;;;;;2.08;1.17;;;16.30;52.80;;;;;;5090478;28;20040;-70
2021/05/07 01:38:11;;;;;;;2.03;1.02;;;16.30;52.80;;;;;;5090750;28;20028;-69
2021/05/07 01:40:40;;;;;;;2.47;1.23;;;16.30;52.80;;;;;;5090325;28;20031;-70
2021/05/07 01:43:06;;;;;;;3.25;1.38;;;16.30;53.30;;;;;;5090047;28;20020;-70
2021/05/07 01:45:34;;;;;;;3.25;1.00;;;16.30;52.80;;;;;;5090473;28;20026;-69
2021/05/07 01:48:00;;;;;;;2.53;1.30;;;16.30;52.80;;;;;;5089157;28;20036;-70
2021/05/07 01:50:28;;;;;;;2.22;1.20;;;16.30;52.80;;;;;;5090683;28;20484;-70
2021/05/07 01:52:55;;;;;;;2.47;1.23;;;16.20;52.80;;;;;;5090780;28;20066;-70
2021/05/07 01:55:29;;;;;;;1.40;0.90;;;16.20;52.80;;;;;;5090346;28;20036;-70
2021/05/07 01:57:56;;;;;;;2.50;0.98;;;16.20;52.80;;;;;;5090791;28;20027;-70
2021/05/07 02:00:27;;;;;;;2.65;1.30;;;16.20;52.80;;;;;;5090449;28;20077;-70
2021/05/07 02:02:53;;;;;;;1.92;1.17;;;16.20;52.80;;;;;;5090144;28;20035;-70
2021/05/07 02:05:19;;;;;;;2.80;1.45;;;16.20;52.80;;;;;;5090771;28;20035;-70
2021/05/07 02:07:45;;;;;;;2.70;0.95;;;16.20;52.90;;;;;;5090609;28;20016;-70
2021/05/07 02:10:14;;;;;;;2.17;1.20;;;16.10;52.80;;;;;;5090373;28;20040;-70
2021/05/07 02:12:40;;;;;;;2.00;1.20;;;16.10;52.80;;;;;;5094572;28;20051;-71
2021/05/07 02:15:08;;;;;;;3.33;1.40;;;16.10;52.80;;;;;;5094373;28;20078;-71
2021/05/07 02:17:34;;;;;;;2.42;1.40;;;16.20;52.80;;;;;;5094247;28;20063;-71
2021/05/07 02:20:00;;;;;;;2.72;1.58;;;16.10;52.80;;;;;;5092584;28;20067;-70
2021/05/07 02:22:26;;;;;;;3.03;1.40;;;16.10;52.80;;;;;;5094978;28;20024;-71
2021/05/07 02:24:52;;;;;;;2.22;1.10;;;16.10;52.80;;;;;;5094068;28;20139;-70
2021/05/07 02:27:17;;;;;;;2.08;1.23;;;16.10;52.80;;;;;;5094137;28;20519;-70
2021/05/07 02:29:43;;;;;;;2.80;1.27;;;16.10;52.80;;;;;;5093573;28;20036;-70
2021/05/07 02:32:09;;;;;;;2.20;1.02;;;16.10;52.80;;;;;;5093350;28;20035;-69
2021/05/07 02:34:34;;;;;;;2.53;1.25;;;16.10;52.80;;;;;;5093697;28;20040;-70
2021/05/07 02:37:00;;;;;;;2.50;1.20;;;16.00;52.80;;;;;;5093482;28;20027;-70
2021/05/07 02:39:25;;;;;;;1.73;1.10;;;16.00;53.30;;;;;;5094473;28;20032;-70
2021/05/07 02:41:51;;;;;;;2.13;1.10;;;16.00;52.80;;;;;;5094337;28;20424;-70
2021/05/07 02:44:17;;;;;;;2.30;1.45;;;16.00;52.80;;;;;;5094608;28;20115;-69
2021/05/07 02:46:42;;;;;;;2.78;1.38;;;16.00;52.80;;;;;;5094098;28;20066;-70
2021/05/07 02:49:08;;;;;;;2.53;1.17;;;16.00;52.80;;;;;;5093975;28;20028;-69
2021/05/07 02:51:34;;;;;;;4.10;1.48;;;16.00;52.80;;;;;;5073972;28;20436;-69
2021/05/07 02:54:01;;;;;;;1.98;1.08;;;16.00;52.80;;;;;;5073665;28;20113;-69
2021/05/07 02:56:27;;;;;;;3.15;1.40;;;16.00;52.80;;;;;;5093410;28;20495;-70
2021/05/07 02:58:53;;;;;;;2.80;1.27;;;15.90;52.80;;;;;;5093432;28;20038;-69
2021/05/07 03:01:19;;;;;;;1.73;1.13;;;15.90;52.80;;;;;;5093741;28;20089;-69
2021/05/07 03:03:45;;;;;;;1.45;1.10;;;15.90;52.80;;;;;;5093617;28;20098;-70
2021/05/07 03:06:11;;;;;;;3.03;1.40;;;15.90;52.80;;;;;;5093263;28;20039;-70
2021/05/07 03:08:37;;;;;;;2.97;1.35;;;15.90;52.80;;;;;;5093445;28;20085;-70
2021/05/07 03:11:03;;;;;;;2.35;0.98;;;15.80;52.80;;;;;;5093827;28;20077;-70
2021/05/07 03:13:29;;;;;;;1.98;1.30;;;15.80;52.80;;;;;;5093335;28;20052;-70
2021/05/07 03:15:54;;;;;;;4.30;1.50;;;15.80;52.80;;;;;;5093365;28;20067;-70
2021/05/07 03:18:21;;;;;;;2.60;1.02;;;15.80;52.80;;;;;;5093918;28;20472;-70
2021/05/07 03:20:48;;;;;;;2.17;1.13;;;15.80;52.80;;;;;;5093401;28;20021;-69
2021/05/07 03:23:14;;;;;;;2.58;1.00;;;15.80;52.70;;;;;;5092989;28;20052;-70
2021/05/07 03:25:40;;;;;;;2.10;1.40;;;15.80;52.70;;;;;;5093323;28;20018;-70
2021/05/07 03:28:06;;;;;;;3.63;1.42;;;15.80;52.70;;;;;;5093196;28;20107;-70
2021/05/07 03:30:33;;;;;;;2.88;1.30;;;15.80;52.70;;;;;;5092896;28;20139;-70
2021/05/07 03:33:03;;;;;;;2.35;1.02;;;15.80;52.70;;;;;;5092883;28;20039;-70
2021/05/07 03:35:30;;;;;;;2.00;1.20;;;15.80;52.70;;;;;;5092507;28;20062;-70
2021/05/07 03:37:55;;;;;;;3.00;1.13;;;15.80;52.70;;;;;;5093188;28;20103;-70
2021/05/07 03:40:21;;;;;;;1.90;1.10;;;15.80;52.70;;;;;;5093345;28;20467;-70
2021/05/07 03:42:47;;;;;;;2.83;1.20;;;15.80;52.70;;;;;;5092437;28;20032;-70
2021/05/07 03:45:17;;;;;;;3.63;1.35;;;15.80;52.70;;;;;;5093192;28;20024;-70
2021/05/07 03:47:43;;;;;;;2.10;1.48;;;15.80;52.70;;;;;;5092361;28;20434;-70
2021/05/07 03:50:11;;;;;;;2.33;1.40;;;15.80;52.70;;;;;;5093153;28;20074;-70
2021/05/07 03:52:38;;;;;;;1.83;1.05;;;15.80;52.80;;;;;;5092886;28;20028;-70
2021/05/07 03:55:05;;;;;;;2.60;1.23;;;15.70;52.70;;;;;;5092466;28;20042;-70
2021/05/07 03:57:31;;;;;;;2.83;1.30;;;15.80;52.70;;;;;;5092566;28;20027;-70
2021/05/07 03:59:57;;;;;;;3.00;1.13;;;15.70;53.30;;;;;;5092557;28;20036;-69
2021/05/07 04:02:24;;;;;;;1.77;1.00;;;15.70;52.70;;;;;;5091344;28;20178;-70
2021/05/07 04:04:54;;;;;;;3.35;1.70;;;15.70;52.70;;;;;;5092299;28;20028;-70
2021/05/07 04:07:20;;;;;;;3.15;1.40;;;15.70;52.80;;;;;;5092526;28;20019;-70
2021/05/07 04:09:53;;;;;;;2.47;1.15;;;15.70;52.80;;;;;;5091605;28;20653;-71
2021/05/07 04:15:17;;;;;;;2.45;1.33;;;15.70;52.80;;;;;;5080126;28;20044;-70
2021/05/07 04:17:43;;;;;;;4.05;1.60;;;15.70;52.80;;;;;;5091800;28;20020;-70
2021/05/07 04:20:11;;;;;;;2.65;1.25;;;15.60;52.80;;;;;;5092499;28;20120;-70
2021/05/07 04:22:37;;;;;;;3.38;1.50;;;15.60;52.80;;;;;;5091815;28;20529;-69
2021/05/07 04:25:05;;;;;;;2.55;0.90;;;15.60;52.80;;;;;;5092019;28;20045;-70
2021/05/07 04:27:31;;;;;;;3.65;1.25;;;15.60;52.80;;;;;;5091911;28;20024;-70
2021/05/07 04:29:56;;;;;;;2.72;1.38;;;15.60;52.80;;;;;;5092117;28;20051;-70
2021/05/07 04:32:22;;;;;;;3.03;1.45;;;15.60;52.80;;;;;;5092595;28;20024;-70
2021/05/07 04:34:48;;;;;;;2.60;1.30;;;15.60;52.80;;;;;;5089997;28;20036;-71
2021/05/07 04:37:13;;;;;;;1.95;1.13;;;15.60;52.80;;;;;;5091967;28;20024;-70
2021/05/07 04:39:39;;;;;;;6.20;1.35;;;15.60;52.80;;;;;;5091283;28;20039;-70
2021/05/07 04:42:06;;;;;;;2.15;1.20;;;15.60;52.80;;;;;;5092082;28;20046;-70
2021/05/07 04:44:31;;;;;;;2.97;1.15;;;15.60;52.80;;;;;;5092110;28;20471;-69
2021/05/07 04:46:59;;;;;;;3.00;1.40;;;15.60;52.80;;;;;;5090727;28;20032;-70
2021/05/07 04:49:28;;;;;;;3.40;1.35;;;15.60;52.80;;;;;;5091806;28;20024;-70
2021/05/07 04:51:55;;;;;;;3.42;1.60;;;15.60;52.80;;;;;;5091910;28;20396;-69
2021/05/07 04:54:21;;;;;;;3.72;1.30;;;15.60;52.80;;;;;;5091130;28;20051;-69
2021/05/07 04:56:46;;;;;;;3.08;1.23;;;15.60;52.80;;;;;;5091127;28;20028;-69
2021/05/07 04:59:12;;;;;;;2.05;1.00;;;15.50;52.70;;;;;;5091887;28;20077;-69
2021/05/07 05:01:38;;;;;;;3.25;1.30;;;15.50;52.70;;;;;;5090806;28;20165;-70
2021/05/07 05:04:04;;;;;;;1.90;1.10;;;15.50;52.70;;;;;;5091815;28;20391;-70
2021/05/07 05:06:30;;;;;;;3.28;1.40;;;15.50;52.70;;;;;;5091771;28;20369;-70
2021/05/07 05:08:55;;;;;;;3.67;1.20;;;15.50;52.70;;;;;;5090970;28;20028;-70
2021/05/07 05:11:21;;;;;;;3.22;1.20;;;15.50;52.70;;;;;;5091677;28;20030;-70
2021/05/07 05:13:47;;;;;;;4.28;1.85;;;15.50;52.70;;;;;;5090510;28;20031;-70
2021/05/07 05:16:12;;;;;;;2.88;1.33;;;15.50;52.80;;;;;;5091275;28;20383;-70
2021/05/07 05:18:38;;;;;;;2.85;1.35;;;15.50;52.80;;;;;;5091201;28;20028;-71
2021/05/07 05:21:09;;;;;;;4.93;1.30;;;15.50;52.80;;;;;;5091037;28;20029;-72
2021/05/07 05:23:35;;;;;;;2.65;1.35;;;15.50;52.70;;;;;;5091352;28;20103;-73
2021/05/07 05:26:01;;;;;;;2.50;1.10;;;15.50;53.00;;;;;;5091175;28;20491;-72
2021/05/07 05:28:27;;;;;;;2.25;1.00;;;15.50;53.20;;;;;;5091262;28;20032;-72
2021/05/07 05:30:53;;;;;;;4.53;1.45;;;15.50;53.10;;;;;;5090761;28;20032;-74
2021/05/07 05:33:20;;;;;;;3.70;1.30;;;15.40;53.10;;;;;;5090775;28;20043;-73
2021/05/07 05:35:46;;;;;;;4.38;1.25;;;15.50;53.10;;;;;;5090961;28;20032;-73
2021/05/07 05:38:13;;;;;;;2.70;1.50;;;15.50;53.10;;;;;;5090593;28;20024;-73
2021/05/07 05:40:39;;;;;;;2.13;1.40;;;15.50;53.30;;;;;;5090843;28;20385;-73
2021/05/07 05:43:04;;;;;;;2.47;1.20;;;15.50;53.50;;;;;;5090916;28;20024;-74
2021/05/07 05:45:30;;;;;;;1.92;1.08;;;15.50;53.60;;;;;;5090902;28;20032;-73
2021/05/07 05:48:15;;;;;;;2.88;1.55;;;15.50;53.70;;;;;;5090872;28;20024;-73
2021/05/07 05:50:49;;;;;;;4.35;1.27;;;15.50;53.60;;;;;;5091014;28;20028;-72
2021/05/07 05:53:15;;;;;;;2.10;1.20;;;15.50;53.80;;;;;;5090907;28;20365;-73
2021/05/07 05:55:41;;;;;;;5.05;1.30;;;15.50;53.80;;;;;;5090467;28;20036;-71
2021/05/07 05:58:07;;;;;;;2.85;1.00;;;15.50;54.60;;;;;;5090291;28;20031;-70
2021/05/07 06:00:34;;;;;;;5.38;1.67;;;15.50;53.70;;;;;;5090076;28;20034;-71
2021/05/07 06:03:00;;;;;;;7.20;1.98;;;15.60;53.80;;;;;;5090776;28;20035;-71
2021/05/07 06:05:26;;;;;;;2.88;1.20;;;15.60;53.80;;;;;;5091370;28;20475;-75
2021/05/07 06:07:52;;;;;;;3.65;1.50;;;15.60;53.70;;;;;;5090090;28;20085;-74
2021/05/07 06:10:19;;;;;;;3.47;1.50;;;15.60;53.70;;;;;;5090523;28;20433;-76
2021/05/07 06:12:46;;;;;;;3.55;1.30;;;15.60;53.70;;;;;;5089620;28;20413;-71
2021/05/07 06:15:14;;;;;;;4.03;1.10;;;15.60;53.70;;;;;;5090336;28;20028;-71
2021/05/07 06:17:40;;;;;;;2.88;1.25;;;15.60;53.70;;;;;;5089861;28;20019;-70
2021/05/07 06:20:08;;;;;;;2.50;1.08;;;15.60;53.70;;;;;;5090404;28;20024;-70
2021/05/07 06:22:35;;;;;;;4.40;1.20;;;15.60;53.70;;;;;;5090445;28;20022;-71
2021/05/07 06:25:03;;;;;;;3.88;1.30;;;15.60;53.70;;;;;;5089896;28;20028;-69
2021/05/07 06:27:28;;;;;;;2.55;1.02;;;15.60;53.80;;;;;;5090005;28;20107;-70
2021/05/07 06:29:54;;;;;;;3.72;1.20;;;15.60;53.80;;;;;;5089558;28;20064;-70
2021/05/07 06:32:19;;;;;;;3.88;1.42;;;15.60;53.90;;;;;;5090436;28;20714;-69
2021/05/07 06:34:45;;;;;;;2.83;1.20;;;15.60;53.90;;;;;;5088698;28;20047;-70
2021/05/07 06:37:11;;;;;;;3.80;1.30;;;15.60;53.90;;;;;;5090706;28;20049;-69
2021/05/07 06:39:36;;;;;;;3.78;1.13;;;15.60;53.90;;;;;;5090018;28;20030;-69
2021/05/07 06:42:03;;;;;;;3.45;1.13;;;15.60;53.80;;;;;;5090625;28;20020;-69
2021/05/07 06:44:29;;;;;;;2.90;1.27;;;15.60;53.90;;;;;;5090045;28;20105;-68
2021/05/07 06:46:55;;;;;;;2.85;1.35;;;15.60;53.90;;;;;;5089054;28;20464;-71
2021/05/07 06:49:22;;;;;;;2.90;0.90;;;15.70;54.30;;;;;;5090325;28;20020;-70
2021/05/07 06:51:49;;;;;;;5.13;1.40;;;15.80;53.50;;;;;;5090272;28;20028;-70
2021/05/07 06:54:15;;;;;;;4.22;1.17;;;15.80;53.40;;;;;;5090116;28;20110;-74
2021/05/07 06:56:40;;;;;;;3.33;1.15;;;15.80;53.40;;;;;;5090323;28;20062;-74
2021/05/07 06:59:07;;;;;;;3.25;1.02;;;15.80;53.50;;;;;;5090894;28;20111;-72
2021/05/07 07:01:33;;;;;;;3.13;1.15;;;15.90;53.40;;;;;;5093279;28;20024;-71
2021/05/07 07:03:59;;;;;;;3.97;0.80;;;15.90;53.50;;;;;;5094097;28;20028;-72
2021/05/07 07:06:24;;;;;;;3.08;0.90;;;16.00;53.40;;;;;;5093600;28;20099;-72
2021/05/07 07:08:51;;;;;;;2.50;1.13;;;16.10;53.40;;;;;;5092929;28;20505;-72
2021/05/07 07:11:17;;;;;;;5.55;0.95;;;16.20;53.30;;;;;;5093488;28;20035;-71
2021/05/07 07:13:43;;;;;;;4.75;0.90;;;16.30;53.20;;;;;;5093350;28;20101;-70
2021/05/07 07:16:09;;;;;;;2.72;1.00;;;16.40;53.10;;;;;;5093248;28;20129;-73
2021/05/07 07:18:35;;;;;;;2.95;1.10;;;16.50;53.10;;;;;;5093118;28;20024;-73
2021/05/07 07:21:00;;;;;;;2.60;0.70;;;16.60;53.10;;;;;;5093439;28;20028;-73
2021/05/07 07:23:26;;;;;;;6.43;1.52;;;16.60;53.20;;;;;;5108900;28;20055;-72
2021/05/07 07:25:53;;;;;;;5.38;1.23;;;16.70;53.00;;;;;;5092414;28;20032;-72
2021/05/07 07:28:18;;;;;;;3.38;1.40;;;16.80;53.50;;;;;;5091595;28;20038;-72
2021/05/07 07:30:47;;;;;;;4.15;1.33;;;16.90;53.50;;;;;;5091474;28;20032;-72
2021/05/07 07:33:13;;;;;;;8.10;1.85;;;16.90;52.90;;;;;;5091568;28;20519;-73
2021/05/07 07:35:39;;;;;;;2.80;1.50;;;17.00;53.10;;;;;;5091241;28;20093;-73
2021/05/07 07:38:05;;;;;;;3.28;1.20;;;17.10;53.30;;;;;;5091191;28;20073;-72
2021/05/07 07:40:31;;;;;;;4.65;1.20;;;17.20;53.20;;;;;;5090048;28;20060;-73
2021/05/07 07:42:57;;;;;;;4.03;1.45;;;17.30;52.90;;;;;;5106322;28;20690;-72
2021/05/07 07:45:22;;;;;;;2.13;0.88;;;17.40;53.10;;;;;;5090417;28;20114;-72
2021/05/07 07:47:48;;;;;;;3.58;0.90;;;17.50;52.80;;;;;;5088164;28;20032;-72
2021/05/07 07:50:14;;;;;;;3.40;0.90;;;17.60;53.00;;;;;;5087671;28;20027;-72
2021/05/07 07:52:40;;;;;;;3.15;1.00;;;17.70;52.70;;;;;;5093079;28;20032;-72
2021/05/07 07:55:07;;;;;;;2.17;0.90;;;17.80;52.70;;;;;;5092234;28;20403;-72
2021/05/07 07:57:33;;;;;;;2.53;0.85;;;18.00;52.40;;;;;;5093172;28;20016;-72
2021/05/07 07:59:58;;;;;;;5.38;1.65;;;18.00;52.10;;;;;;5092426;28;20498;-73
2021/05/07 08:02:29;;;;;;;2.95;1.10;;;18.10;52.00;;;;;;5092282;28;20060;-73
2021/05/07 08:04:54;;;;;;;6.05;1.50;;;18.10;51.80;;;;;;5092379;28;20043;-72
2021/05/07 08:07:20;;;;;;;2.63;0.80;;;18.20;51.60;;;;;;5092583;28;20027;-72
2021/05/07 08:09:46;;;;;;;2.45;1.13;;;18.30;51.40;;;;;;5091254;28;20036;-73
2021/05/07 08:12:12;;;;;;;7.03;1.20;;;18.30;51.40;;;;;;5091973;28;20430;-75
2021/05/07 08:14:38;;;;;;;3.92;1.17;;;18.30;51.50;;;;;;5091693;28;20020;-74
2021/05/07 08:17:04;;;;;;;2.80;0.90;;;18.40;51.40;;;;;;5092709;28;20105;-75
2021/05/07 08:19:29;;;;;;;4.75;1.02;;;18.40;51.30;;;;;;5092260;28;20020;-73
2021/05/07 08:21:55;;;;;;;2.50;1.00;;;18.50;51.30;;;;;;5092298;28;20040;-77
2021/05/07 08:24:21;;;;;;;2.60;1.05;;;18.60;51.20;;;;;;5091911;28;20472;-69
2021/05/07 08:26:47;;;;;;;4.05;0.95;;;18.70;51.20;;;;;;5090540;28;20089;-72
2021/05/07 08:29:13;;;;;;;4.40;0.88;;;18.70;51.10;;;;;;5090809;28;20024;-71
2021/05/07 08:31:39;;;;;;;7.63;0.80;;;18.80;51.60;;;;;;5090486;28;20389;-72
2021/05/07 08:34:04;;;;;;;20.50;3.40;;;18.80;51.40;;;;;;5092527;28;20024;-72
2021/05/07 08:36:30;;;;;;;4.88;1.02;;;18.90;51.70;;;;;;5091029;28;20081;-77
2021/05/07 08:38:56;;;;;;;2.72;0.95;;;19.00;52.00;;;;;;5091895;28;20042;-72
2021/05/07 08:41:22;;;;;;;4.10;0.93;;;19.10;52.10;;;;;;5091927;28;20107;-71
2021/05/07 08:43:51;;;;;;;3.63;0.80;;;19.20;52.00;;;;;;5092065;28;20069;-71
2021/05/07 08:46:17;;;;;;;12.32;1.27;;;19.30;52.00;;;;;;5090816;28;20024;-71
2021/05/07 08:48:43;;;;;;;5.90;0.70;;;19.40;52.20;;;;;;5091852;28;20027;-71
2021/05/07 08:51:10;;;;;;;7.15;0.90;;;19.50;52.40;;;;;;5091810;28;20032;-75
2021/05/07 08:53:36;;;;;;;10.63;1.02;;;19.60;52.40;;;;;;5090855;28;20020;-74
2021/05/07 08:56:04;;;;;;;2.55;0.88;;;19.60;51.80;;;;;;5091568;28;20574;-74
2021/05/07 08:58:30;;;;;;;3.70;0.70;;;19.60;51.60;;;;;;5090884;28;20008;-75
2021/05/07 09:00:56;;;;;;;4.07;0.85;;;19.60;51.40;;;;;;5090742;28;20145;-74
2021/05/07 09:03:22;;;;;;;3.10;0.68;;;19.60;51.30;;;;;;5090710;28;20024;-74
2021/05/07 09:05:47;;;;;;;7.90;0.77;;;19.60;51.20;;;;;;5089818;28;20036;-74
2021/05/07 09:08:13;;;;;;;4.53;0.85;;;19.60;51.10;;;;;;5091771;28;20060;-74
2021/05/07 09:10:40;;;;;;;4.25;0.98;;;19.70;51.60;;;;;;5089271;28;20028;-81
2021/05/07 09:13:08;;;;;;;2.03;0.90;;;19.70;51.20;;;;;;5090276;28;20023;-78
2021/05/07 09:15:44;;;;;;;2.65;0.63;;;19.80;51.40;;;;;;5088360;28;20118;-80
2021/05/07 09:18:15;;;;;;;3.10;0.93;;;19.90;51.10;;;;;;5091085;28;20028;-80
2021/05/07 09:20:42;;;;;;;7.28;0.82;;;19.90;50.60;;;;;;5090789;28;20031;-80
2021/05/07 09:23:12;;;;;;;1.63;0.70;;;19.90;50.50;;;;;;5090855;28;20031;-79
2021/05/07 09:25:43;;;;;;;3.38;0.60;;;20.00;50.50;;;;;;5091191;28;20523;-78
2021/05/07 09:28:15;;;;;;;4.82;0.90;;;20.10;51.20;;;;;;5091438;28;20032;-78
2021/05/07 09:30:42;;;;;;;2.58;0.90;;;20.10;51.10;;;;;;5090652;28;20024;-78
2021/05/07 09:33:10;;;;;;;2.35;0.80;;;20.00;50.80;;;;;;5090774;28;20046;-78
2021/05/07 09:35:37;;;;;;;2.70;1.08;;;20.10;50.40;;;;;;5091465;28;20036;-78
2021/05/07 09:38:12;;;;;;;6.15;1.35;;;20.10;50.70;;;;;;5090543;28;20070;-74
2021/05/07 09:40:41;;;;;;;4.97;1.45;;;20.10;50.80;;;;;;5090714;28;20496;-73
2021/05/07 09:43:12;;;;;;;3.08;1.30;;;20.10;52.60;;;;;;5091496;28;20432;-75
2021/05/07 09:45:40;;;;;;;5.63;1.20;;;20.10;52.20;;;;;;5090955;28;20028;-75
2021/05/07 09:48:26;;;;;;;4.22;0.95;;;20.20;52.40;;;;;;5091406;28;20073;-74
2021/05/07 09:50:57;;;;;;;2.88;1.25;;;20.20;51.40;;;;;;5090479;28;20034;-74
2021/05/07 09:53:25;;;;;;;2.70;1.17;;;20.20;51.50;;;;;;5089787;28;20426;-77
2021/05/07 09:55:54;;;;;;;4.93;1.00;;;20.30;52.20;;;;;;5090860;28;20399;-75
2021/05/07 09:58:20;;;;;;;5.13;1.40;;;20.30;53.10;;;;;;5089839;28;20012;-74
2021/05/07 10:00:46;;;;;;;8.68;1.23;;;20.30;52.80;;;;;;5090198;28;20028;-78
2021/05/07 10:03:11;;;;;;;6.50;1.40;;;20.30;52.80;;;;;;5090112;28;20103;-76
2021/05/07 10:05:38;;;;;;;20.15;1.55;;;20.40;52.60;;;;;;5090813;28;20387;-75
2021/05/07 10:08:05;;;;;;;3.33;1.00;;;20.40;52.30;;;;;;5089811;28;20118;-70
2021/05/07 10:10:31;;;;;;;3.92;1.05;;;20.50;51.90;;;;;;5090713;28;20071;-73
2021/05/07 10:13:00;;;;;;;4.70;1.27;;;20.50;51.70;;;;;;5090575;28;20027;-72
2021/05/07 10:15:35;;;;;;;2.47;0.90;;;20.50;51.50;;;;;;5089607;28;20449;-72
2021/05/07 10:18:02;;;;;;;4.22;1.30;;;20.60;51.60;;;;;;5090909;28;20035;-74
2021/05/07 10:20:33;;;;;;;4.82;0.93;;;20.60;51.50;;;;;;5090967;28;20096;-71
2021/05/07 10:23:00;;;;;;;5.28;1.15;;;20.60;51.60;;;;;;5090543;28;20030;-72
2021/05/07 10:25:27;;;;;;;4.65;1.38;;;20.60;51.40;;;;;;5078946;28;20028;-71
2021/05/07 10:27:55;;;;;;;3.78;1.40;;;20.70;51.30;;;;;;5070419;28;20031;-71
2021/05/07 10:30:23;;;;;;;2.60;1.02;;;20.70;51.60;;;;;;5070679;28;20066;-72
2021/05/07 10:33:17;;;;;;;2.53;1.10;;;20.80;51.20;;;;;;5070815;28;20056;-72
2021/05/07 10:35:47;;;;;;;3.10;1.10;;;20.70;51.20;;;;;;5073729;28;20036;-72
2021/05/07 10:38:17;;;;;;;4.32;1.33;;;20.80;51.20;;;;;;5076072;28;20485;-71
2021/05/07 10:40:45;;;;;;;6.55;1.33;;;20.80;51.10;;;;;;5093057;28;20333;-71
2021/05/07 10:43:13;;;;;;;7.03;1.35;;;20.80;51.10;;;;;;5092867;28;20024;-71
2021/05/07 10:45:46;;;;;;;4.30;1.25;;;20.80;51.00;;;;;;5094412;28;20446;-74
2021/05/07 10:48:23;;;;;;;3.10;1.20;;;20.80;51.00;;;;;;5093773;28;20446;-73
2021/05/07 10:50:51;;;;;;;2.25;1.10;;;20.80;51.10;;;;;;5094115;28;20032;-73
2021/05/07 10:53:28;;;;;;;3.72;1.00;;;20.70;50.70;;;;;;5093901;28;20518;-72
2021/05/07 10:55:55;;;;;;;2.33;0.95;;;20.70;50.90;;;;;;5094049;28;20541;-74
2021/05/07 10:58:34;;;;;;;5.88;1.20;;;20.70;51.70;;;;;;5094158;28;20016;-74
2021/05/07 11:01:01;;;;;;;4.57;1.15;;;20.70;51.40;;;;;;5093524;28;20024;-75
2021/05/07 11:03:27;;;;;;;4.82;1.17;;;20.70;51.20;;;;;;5084957;28;20082;-74
2021/05/07 11:05:53;;;;;;;3.67;0.90;;;20.70;51.10;;;;;;5085453;28;20024;-74
2021/05/07 11:08:21;;;;;;;7.60;0.98;;;20.60;50.80;;;;;;5089606;28;20070;-71
2021/05/07 11:10:49;;;;;;;4.53;1.40;;;20.60;50.60;;;;;;5092691;28;20073;-73
2021/05/07 11:13:15;;;;;;;4.15;1.15;;;20.50;50.60;;;;;;5091716;28;20028;-73
2021/05/07 11:15:41;;;;;;;5.53;1.20;;;20.50;50.50;;;;;;5088771;28;20040;-72
2021/05/07 11:18:09;;;;;;;3.38;0.90;;;20.50;50.50;;;;;;5093144;28;20480;-73
2021/05/07 11:20:37;;;;;;;2.45;1.00;;;20.50;50.70;;;;;;5093261;28;20430;-71
2021/05/07 11:23:05;;;;;;;3.42;1.02;;;20.40;50.60;;;;;;5089516;28;20483;-72
2021/05/07 11:25:34;;;;;;;4.78;1.02;;;20.40;51.00;;;;;;5089049;28;20024;-72
2021/05/07 11:28:14;;;;;;;1.70;0.90;;;20.40;50.50;;;;;;5075710;28;20012;-72
2021/05/07 11:31:00;;;;;;;3.05;0.93;;;20.40;50.70;;;;;;5089443;28;20024;-72
2021/05/07 11:33:31;;;;;;;2.28;0.82;;;20.40;50.80;;;;;;5090301;28;20445;-73
2021/05/07 11:36:10;;;;;;;2.47;0.93;;;20.30;50.40;;;;;;5090609;28;20047;-72
2021/05/07 11:38:37;;;;;;;2.53;0.90;;;20.30;50.30;;;;;;5089945;28;20027;-73
2021/05/07 11:41:03;;;;;;;2.38;0.82;;;20.40;50.20;;;;;;5090695;28;20030;-72
2021/05/07 11:43:30;;;;;;;4.75;1.48;;;20.30;50.20;;;;;;5091149;28;20024;-73
2021/05/07 11:46:06;;;;;;;1.70;1.00;;;20.30;50.00;;;;;;5092105;28;20027;-74
2021/05/07 11:48:34;;;;;;;2.35;1.20;;;20.30;49.60;;;;;;5091383;28;20031;-74
2021/05/07 11:51:04;;;;;;;3.90;1.33;;;20.30;49.80;;;;;;5091306;28;20488;-73
2021/05/07 11:53:30;;;;;;;6.53;1.30;;;20.30;49.60;;;;;;5088998;28;20017;-75
2021/05/07 11:55:56;;;;;;;3.13;1.60;;;20.30;49.60;;;;;;5090333;28;20046;-74
2021/05/07 11:58:30;;;;;;;2.88;1.85;;;20.30;48.90;;;;;;5083582;28;20017;-74
2021/05/07 12:00:56;;;;;;;3.33;1.73;;;20.30;48.80;;;;;;5083051;28;20119;-74
2021/05/07 12:03:24;;;;;;;7.88;1.90;;;20.30;49.00;;;;;;5092068;28;20099;-75
2021/05/07 12:05:52;;;;;;;3.33;1.50;;;20.40;48.50;;;;;;5076363;28;20418;-74
2021/05/07 12:08:27;;;;;;;3.58;1.73;;;20.30;47.70;;;;;;5092289;28;20035;-74
2021/05/07 12:10:53;;;;;;;4.15;1.73;;;20.30;48.00;;;;;;5092057;28;20020;-75
2021/05/07 12:13:25;;;;;;;5.07;1.95;;;20.40;48.00;;;;;;5077382;28;20103;-74
2021/05/07 12:15:52;;;;;;;3.35;1.70;;;20.30;47.10;;;;;;5089831;28;20551;-74
2021/05/07 12:18:20;;;;;;;2.95;1.40;;;20.30;47.70;;;;;;5090721;28;20020;-73
2021/05/07 12:20:49;;;;;;;4.55;1.63;;;20.30;48.40;;;;;;5081596;28;20036;-75
2021/05/07 12:23:15;;;;;;;2.33;1.50;;;20.20;48.40;;;;;;5089369;28;20024;-74
2021/05/07 12:25:46;;;;;;;4.93;1.60;;;20.20;48.20;;;;;;5090988;28;20073;-75
2021/05/07 12:28:17;;;;;;;2.83;1.88;;;20.20;48.10;;;;;;5082752;28;20024;-75
2021/05/07 12:30:45;;;;;;;3.40;2.00;;;20.20;48.20;;;;;;5091256;28;20111;-75
2021/05/07 12:33:20;;;;;;;6.25;2.85;;;20.20;48.20;;;;;;5091119;28;20035;-74
2021/05/07 12:35:56;;;;;;;6.05;3.95;;;20.20;48.20;;;;;;5088548;28;20119;-74
2021/05/07 12:41:23;;;;;;;9.82;6.05;;;20.20;48.00;;;;;;5078664;28;20029;-75
2021/05/07 12:43:50;;;;;;;11.75;7.18;;;20.30;47.90;;;;;;5085694;28;20059;-74
2021/05/07 12:46:18;;;;;;;11.43;6.43;;;20.30;47.50;;;;;;5077184;28;20013;-74
2021/05/07 12:48:47;;;;;;;10.02;6.72;;;20.30;46.50;;;;;;5081107;28;20043;-75
2021/05/07 12:51:13;;;;;;;11.73;6.20;;;20.30;46.90;;;;;;5085064;28;20016;-74